sensor_id;sensor_type;location;lat;lon;timestamp;temperature;humidity
7588;DHT22;3835;48.850;8.938;2022-08-21T00:00:19;17.00;99.90
7588;DHT22;3835;48.850;8.938;2022-08-21T00:02:48;16.80;99.90
7588;DHT22;3835;48.850;8.938;2022-08-21T00:05:17;16.60;99.90
7588;DHT22;3835;48.850;8.938;2022-08-21T00:07:44;16.50;99.90
7588;DHT22;3835;48.850;8.938;2022-08-21T00:10:12;16.30;99.90
7588;DHT22;3835;48.850;8.938;2022-08-21T00:12:40;16.20;99.90
7588;DHT22;3835;48.850;8.938;2022-08-21T00:15:10;16.20;99.90
7588;DHT22;3835;48.850;8.938;2022-08-21T00:17:37;16.10;99.90
7588;DHT22;3835;48.850;8.938;2022-08-21T00:20:05;16.10;99.90
7588;DHT22;3835;48.850;8.938;2022-08-21T00:22:34;16.30;99.90
7588;DHT22;3835;48.850;8.938;2022-08-21T00:25:01;16.40;99.90
7588;DHT22;3835;48.850;8.938;2022-08-21T00:27:28;16.50;99.90
7588;DHT22;3835;48.850;8.938;2022-08-21T00:29:55;16.70;99.90
7588;DHT22;3835;48.850;8.938;2022-08-21T00:32:25;16.70;99.90
7588;DHT22;3835;48.850;8.938;2022-08-21T00:34:53;16.70;99.90
7588;DHT22;3835;48.850;8.938;2022-08-21T00:37:20;16.70;99.90
7588;DHT22;3835;48.850;8.938;2022-08-21T00:39:46;16.80;99.90
7588;DHT22;3835;48.850;8.938;2022-08-21T00:42:14;16.80;99.90
7588;DHT22;3835;48.850;8.938;2022-08-21T00:44:41;16.80;99.90
7588;DHT22;3835;48.850;8.938;2022-08-21T00:47:08;16.70;99.90
7588;DHT22;3835;48.850;8.938;2022-08-21T00:49:37;16.60;99.90
7588;DHT22;3835;48.850;8.938;2022-08-21T00:52:06;16.60;99.90
7588;DHT22;3835;48.850;8.938;2022-08-21T00:54:34;16.40;99.90
7588;DHT22;3835;48.850;8.938;2022-08-21T00:57:04;16.40;99.90
7588;DHT22;3835;48.850;8.938;2022-08-21T00:59:35;16.20;99.90
7588;DHT22;3835;48.850;8.938;2022-08-21T01:02:04;16.10;99.90
7588;DHT22;3835;48.850;8.938;2022-08-21T01:04:32;15.90;99.90
7588;DHT22;3835;48.850;8.938;2022-08-21T01:07:00;15.80;99.90
7588;DHT22;3835;48.850;8.938;2022-08-21T01:09:28;15.70;99.90
7588;DHT22;3835;48.850;8.938;2022-08-21T01:11:55;15.60;99.90
7588;DHT22;3835;48.850;8.938;2022-08-21T01:14:22;15.60;99.90
7588;DHT22;3835;48.850;8.938;2022-08-21T01:16:51;15.50;99.90
7588;DHT22;3835;48.850;8.938;2022-08-21T01:19:20;15.50;99.90
7588;DHT22;3835;48.850;8.938;2022-08-21T01:21:49;15.40;99.90
7588;DHT22;3835;48.850;8.938;2022-08-21T01:24:16;15.40;99.90
7588;DHT22;3835;48.850;8.938;2022-08-21T01:26:44;15.40;99.90
7588;DHT22;3835;48.850;8.938;2022-08-21T01:29:15;15.30;99.90
7588;DHT22;3835;48.850;8.938;2022-08-21T01:31:43;15.30;99.90
7588;DHT22;3835;48.850;8.938;2022-08-21T01:34:10;15.20;99.90
7588;DHT22;3835;48.850;8.938;2022-08-21T01:36:38;15.20;99.90
7588;DHT22;3835;48.850;8.938;2022-08-21T01:39:06;15.10;99.90
7588;DHT22;3835;48.850;8.938;2022-08-21T01:41:33;15.10;99.90
7588;DHT22;3835;48.850;8.938;2022-08-21T01:44:00;15.00;99.90
7588;DHT22;3835;48.850;8.938;2022-08-21T01:46:27;15.00;99.90
7588;DHT22;3835;48.850;8.938;2022-08-21T01:48:54;15.00;99.90
7588;DHT22;3835;48.850;8.938;2022-08-21T01:51:21;15.00;99.90
7588;DHT22;3835;48.850;8.938;2022-08-21T01:53:48;14.90;99.90
7588;DHT22;3835;48.850;8.938;2022-08-21T01:56:17;14.90;99.90
7588;DHT22;3835;48.850;8.938;2022-08-21T01:58:46;14.90;99.90
7588;DHT22;3835;48.850;8.938;2022-08-21T02:01:13;14.90;99.90
7588;DHT22;3835;48.850;8.938;2022-08-21T02:03:41;14.80;99.90
7588;DHT22;3835;48.850;8.938;2022-08-21T02:06:12;14.80;99.90
7588;DHT22;3835;48.850;8.938;2022-08-21T02:08:40;14.80;99.90
7588;DHT22;3835;48.850;8.938;2022-08-21T02:11:07;14.80;99.90
7588;DHT22;3835;48.850;8.938;2022-08-21T02:13:35;14.80;99.90
7588;DHT22;3835;48.850;8.938;2022-08-21T02:16:03;14.80;99.90
7588;DHT22;3835;48.850;8.938;2022-08-21T02:18:30;14.70;99.90
7588;DHT22;3835;48.850;8.938;2022-08-21T02:20:57;14.70;99.90
7588;DHT22;3835;48.850;8.938;2022-08-21T02:23:24;14.60;99.90
7588;DHT22;3835;48.850;8.938;2022-08-21T02:25:51;14.60;99.90
7588;DHT22;3835;48.850;8.938;2022-08-21T02:28:18;14.60;99.90
7588;DHT22;3835;48.850;8.938;2022-08-21T02:30:47;14.60;99.90
7588;DHT22;3835;48.850;8.938;2022-08-21T02:33:15;14.50;99.90
7588;DHT22;3835;48.850;8.938;2022-08-21T02:35:44;14.50;99.90
7588;DHT22;3835;48.850;8.938;2022-08-21T02:38:14;14.50;99.90
7588;DHT22;3835;48.850;8.938;2022-08-21T02:40:43;14.50;99.90
7588;DHT22;3835;48.850;8.938;2022-08-21T02:43:11;14.40;99.90
7588;DHT22;3835;48.850;8.938;2022-08-21T02:45:40;14.40;99.90
7588;DHT22;3835;48.850;8.938;2022-08-21T02:48:11;14.30;99.90
7588;DHT22;3835;48.850;8.938;2022-08-21T02:50:41;14.30;99.90
7588;DHT22;3835;48.850;8.938;2022-08-21T02:53:11;14.20;99.90
7588;DHT22;3835;48.850;8.938;2022-08-21T02:55:43;14.20;99.90
7588;DHT22;3835;48.850;8.938;2022-08-21T02:58:10;14.20;99.90
7588;DHT22;3835;48.850;8.938;2022-08-21T03:00:38;14.10;99.90
7588;DHT22;3835;48.850;8.938;2022-08-21T03:03:05;14.10;99.90
7588;DHT22;3835;48.850;8.938;2022-08-21T03:05:35;14.00;99.90
7588;DHT22;3835;48.850;8.938;2022-08-21T03:08:05;14.00;99.90
7588;DHT22;3835;48.850;8.938;2022-08-21T03:10:36;14.00;99.90
7588;DHT22;3835;48.850;8.938;2022-08-21T03:13:03;14.00;99.90
7588;DHT22;3835;48.850;8.938;2022-08-21T03:15:31;14.00;99.90
7588;DHT22;3835;48.850;8.938;2022-08-21T03:17:58;14.00;99.90
7588;DHT22;3835;48.850;8.938;2022-08-21T03:20:27;14.00;99.90
7588;DHT22;3835;48.850;8.938;2022-08-21T03:22:55;13.90;99.90
7588;DHT22;3835;48.850;8.938;2022-08-21T03:25:24;13.90;99.90
7588;DHT22;3835;48.850;8.938;2022-08-21T03:27:51;13.90;99.90
7588;DHT22;3835;48.850;8.938;2022-08-21T03:30:20;13.90;99.90
7588;DHT22;3835;48.850;8.938;2022-08-21T03:32:48;13.90;99.90
7588;DHT22;3835;48.850;8.938;2022-08-21T03:35:17;13.90;99.90
7588;DHT22;3835;48.850;8.938;2022-08-21T03:37:45;13.80;99.90
7588;DHT22;3835;48.850;8.938;2022-08-21T03:40:16;13.80;99.90
7588;DHT22;3835;48.850;8.938;2022-08-21T03:42:44;13.80;99.90
7588;DHT22;3835;48.850;8.938;2022-08-21T03:45:13;13.80;99.90
7588;DHT22;3835;48.850;8.938;2022-08-21T03:47:50;13.70;99.90
7588;DHT22;3835;48.850;8.938;2022-08-21T03:50:17;13.70;99.90
7588;DHT22;3835;48.850;8.938;2022-08-21T03:52:44;13.70;99.90
7588;DHT22;3835;48.850;8.938;2022-08-21T03:55:13;13.70;99.90
7588;DHT22;3835;48.850;8.938;2022-08-21T03:57:40;13.80;99.90
7588;DHT22;3835;48.850;8.938;2022-08-21T04:00:08;13.80;99.90
7588;DHT22;3835;48.850;8.938;2022-08-21T04:02:37;13.80;99.90
7588;DHT22;3835;48.850;8.938;2022-08-21T04:05:05;13.80;99.90
7588;DHT22;3835;48.850;8.938;2022-08-21T04:07:32;13.70;99.90
7588;DHT22;3835;48.850;8.938;2022-08-21T04:09:59;13.50;99.90
7588;DHT22;3835;48.850;8.938;2022-08-21T04:12:27;13.30;99.90
7588;DHT22;3835;48.850;8.938;2022-08-21T04:14:54;13.20;99.90
7588;DHT22;3835;48.850;8.938;2022-08-21T04:17:21;13.20;99.90
7588;DHT22;3835;48.850;8.938;2022-08-21T04:19:48;13.20;99.90
7588;DHT22;3835;48.850;8.938;2022-08-21T04:22:15;13.30;99.90
7588;DHT22;3835;48.850;8.938;2022-08-21T04:24:42;13.40;99.90
7588;DHT22;3835;48.850;8.938;2022-08-21T04:27:09;13.40;99.90
7588;DHT22;3835;48.850;8.938;2022-08-21T04:29:38;13.40;99.90
7588;DHT22;3835;48.850;8.938;2022-08-21T04:32:05;13.30;99.90
7588;DHT22;3835;48.850;8.938;2022-08-21T04:34:32;13.30;99.90
7588;DHT22;3835;48.850;8.938;2022-08-21T04:36:59;13.40;99.90
7588;DHT22;3835;48.850;8.938;2022-08-21T04:39:26;13.40;99.90
7588;DHT22;3835;48.850;8.938;2022-08-21T04:41:53;13.50;99.90
7588;DHT22;3835;48.850;8.938;2022-08-21T04:44:20;13.50;99.90
7588;DHT22;3835;48.850;8.938;2022-08-21T04:46:48;13.60;99.90
7588;DHT22;3835;48.850;8.938;2022-08-21T04:49:15;13.60;99.90
7588;DHT22;3835;48.850;8.938;2022-08-21T04:51:42;13.60;99.90
7588;DHT22;3835;48.850;8.938;2022-08-21T04:54:10;13.60;99.90
7588;DHT22;3835;48.850;8.938;2022-08-21T04:56:42;13.60;99.90
7588;DHT22;3835;48.850;8.938;2022-08-21T04:59:14;13.70;99.90
7588;DHT22;3835;48.850;8.938;2022-08-21T05:01:43;13.70;99.90
7588;DHT22;3835;48.850;8.938;2022-08-21T05:04:14;13.70;99.90
7588;DHT22;3835;48.850;8.938;2022-08-21T05:06:44;13.80;99.90
7588;DHT22;3835;48.850;8.938;2022-08-21T05:09:13;13.90;99.90
7588;DHT22;3835;48.850;8.938;2022-08-21T05:11:41;14.00;99.90
7588;DHT22;3835;48.850;8.938;2022-08-21T05:14:08;14.20;99.90
7588;DHT22;3835;48.850;8.938;2022-08-21T05:16:36;14.40;99.90
7588;DHT22;3835;48.850;8.938;2022-08-21T05:19:03;14.60;99.90
7588;DHT22;3835;48.850;8.938;2022-08-21T05:21:32;14.70;99.90
7588;DHT22;3835;48.850;8.938;2022-08-21T05:23:59;14.70;99.90
7588;DHT22;3835;48.850;8.938;2022-08-21T05:26:26;14.70;99.90
7588;DHT22;3835;48.850;8.938;2022-08-21T05:28:53;14.70;99.90
7588;DHT22;3835;48.850;8.938;2022-08-21T05:31:20;14.70;99.90
7588;DHT22;3835;48.850;8.938;2022-08-21T05:33:47;14.70;99.90
7588;DHT22;3835;48.850;8.938;2022-08-21T05:36:14;14.80;99.90
7588;DHT22;3835;48.850;8.938;2022-08-21T05:38:43;14.80;99.90
7588;DHT22;3835;48.850;8.938;2022-08-21T05:41:10;14.90;99.90
7588;DHT22;3835;48.850;8.938;2022-08-21T05:43:37;14.90;99.90
7588;DHT22;3835;48.850;8.938;2022-08-21T05:46:04;15.00;99.90
7588;DHT22;3835;48.850;8.938;2022-08-21T05:48:32;15.20;99.90
7588;DHT22;3835;48.850;8.938;2022-08-21T05:51:04;15.30;99.90
7588;DHT22;3835;48.850;8.938;2022-08-21T05:53:32;15.50;99.90
7588;DHT22;3835;48.850;8.938;2022-08-21T05:56:00;15.60;99.90
7588;DHT22;3835;48.850;8.938;2022-08-21T05:58:30;15.70;99.90
7588;DHT22;3835;48.850;8.938;2022-08-21T06:00:59;15.90;99.90
7588;DHT22;3835;48.850;8.938;2022-08-21T06:03:28;16.10;99.90
7588;DHT22;3835;48.850;8.938;2022-08-21T06:05:56;16.20;99.90
7588;DHT22;3835;48.850;8.938;2022-08-21T06:08:23;16.30;99.90
7588;DHT22;3835;48.850;8.938;2022-08-21T06:10:52;16.50;99.90
7588;DHT22;3835;48.850;8.938;2022-08-21T06:13:21;16.70;99.90
7588;DHT22;3835;48.850;8.938;2022-08-21T06:15:49;16.80;99.90
7588;DHT22;3835;48.850;8.938;2022-08-21T06:18:16;17.00;99.90
7588;DHT22;3835;48.850;8.938;2022-08-21T06:20:44;17.10;99.90
7588;DHT22;3835;48.850;8.938;2022-08-21T06:23:11;17.30;99.90
7588;DHT22;3835;48.850;8.938;2022-08-21T06:25:38;17.40;99.90
7588;DHT22;3835;48.850;8.938;2022-08-21T06:28:07;17.50;99.90
7588;DHT22;3835;48.850;8.938;2022-08-21T06:30:37;17.70;99.90
7588;DHT22;3835;48.850;8.938;2022-08-21T06:33:05;17.90;99.90
7588;DHT22;3835;48.850;8.938;2022-08-21T06:35:33;18.00;99.90
7588;DHT22;3835;48.850;8.938;2022-08-21T06:38:00;18.10;99.90
7588;DHT22;3835;48.850;8.938;2022-08-21T06:40:28;18.30;99.90
7588;DHT22;3835;48.850;8.938;2022-08-21T06:42:56;18.40;99.90
7588;DHT22;3835;48.850;8.938;2022-08-21T06:45:23;18.60;99.90
7588;DHT22;3835;48.850;8.938;2022-08-21T06:47:52;18.80;99.90
7588;DHT22;3835;48.850;8.938;2022-08-21T06:50:19;19.00;99.90
7588;DHT22;3835;48.850;8.938;2022-08-21T06:52:46;19.20;99.90
7588;DHT22;3835;48.850;8.938;2022-08-21T06:55:13;19.30;99.90
7588;DHT22;3835;48.850;8.938;2022-08-21T06:57:40;19.40;99.90
7588;DHT22;3835;48.850;8.938;2022-08-21T07:00:08;19.50;99.90
7588;DHT22;3835;48.850;8.938;2022-08-21T07:02:35;19.60;99.90
7588;DHT22;3835;48.850;8.938;2022-08-21T07:05:04;19.80;99.90
7588;DHT22;3835;48.850;8.938;2022-08-21T07:07:31;19.90;99.90
7588;DHT22;3835;48.850;8.938;2022-08-21T07:09:58;20.00;99.90
7588;DHT22;3835;48.850;8.938;2022-08-21T07:12:25;20.10;99.90
7588;DHT22;3835;48.850;8.938;2022-08-21T07:14:52;20.30;99.90
7588;DHT22;3835;48.850;8.938;2022-08-21T07:17:19;20.50;99.90
7588;DHT22;3835;48.850;8.938;2022-08-21T07:19:46;20.70;99.90
7588;DHT22;3835;48.850;8.938;2022-08-21T07:22:16;20.70;99.90
7588;DHT22;3835;48.850;8.938;2022-08-21T07:24:44;20.80;99.90
7588;DHT22;3835;48.850;8.938;2022-08-21T07:27:11;20.80;99.90
7588;DHT22;3835;48.850;8.938;2022-08-21T07:29:37;20.90;99.90
7588;DHT22;3835;48.850;8.938;2022-08-21T07:32:05;20.90;99.90
7588;DHT22;3835;48.850;8.938;2022-08-21T07:34:32;21.00;99.90
7588;DHT22;3835;48.850;8.938;2022-08-21T07:36:59;21.10;99.90
7588;DHT22;3835;48.850;8.938;2022-08-21T07:39:28;21.10;99.90
7588;DHT22;3835;48.850;8.938;2022-08-21T07:41:54;21.10;99.90
7588;DHT22;3835;48.850;8.938;2022-08-21T07:44:21;21.10;99.90
7588;DHT22;3835;48.850;8.938;2022-08-21T07:46:48;21.20;99.90
7588;DHT22;3835;48.850;8.938;2022-08-21T07:49:15;21.20;99.90
7588;DHT22;3835;48.850;8.938;2022-08-21T07:51:42;21.40;99.90
7588;DHT22;3835;48.850;8.938;2022-08-21T07:54:09;21.50;99.90
7588;DHT22;3835;48.850;8.938;2022-08-21T07:56:37;21.50;99.90
7588;DHT22;3835;48.850;8.938;2022-08-21T07:59:04;21.40;99.90
7588;DHT22;3835;48.850;8.938;2022-08-21T08:01:31;21.50;99.90
7588;DHT22;3835;48.850;8.938;2022-08-21T08:03:58;21.60;99.90
7588;DHT22;3835;48.850;8.938;2022-08-21T08:06:25;21.70;99.90
7588;DHT22;3835;48.850;8.938;2022-08-21T08:08:52;21.70;99.90
7588;DHT22;3835;48.850;8.938;2022-08-21T08:11:18;21.80;99.90
7588;DHT22;3835;48.850;8.938;2022-08-21T08:13:49;22.00;99.90
7588;DHT22;3835;48.850;8.938;2022-08-21T08:16:17;22.20;99.90
7588;DHT22;3835;48.850;8.938;2022-08-21T08:18:44;22.30;99.90
7588;DHT22;3835;48.850;8.938;2022-08-21T08:21:12;22.20;99.90
7588;DHT22;3835;48.850;8.938;2022-08-21T08:23:39;22.20;99.90
7588;DHT22;3835;48.850;8.938;2022-08-21T08:26:06;22.00;99.90
7588;DHT22;3835;48.850;8.938;2022-08-21T08:28:33;22.10;99.90
7588;DHT22;3835;48.850;8.938;2022-08-21T08:31:01;22.20;99.90
7588;DHT22;3835;48.850;8.938;2022-08-21T08:33:28;22.40;99.90
7588;DHT22;3835;48.850;8.938;2022-08-21T08:35:56;22.40;99.90
7588;DHT22;3835;48.850;8.938;2022-08-21T08:38:25;22.50;99.90
7588;DHT22;3835;48.850;8.938;2022-08-21T08:40:58;22.30;99.90
7588;DHT22;3835;48.850;8.938;2022-08-21T08:43:27;22.30;99.90
7588;DHT22;3835;48.850;8.938;2022-08-21T08:45:56;22.40;99.90
7588;DHT22;3835;48.850;8.938;2022-08-21T08:48:39;22.20;99.90
7588;DHT22;3835;48.850;8.938;2022-08-21T08:51:12;22.10;99.90
7588;DHT22;3835;48.850;8.938;2022-08-21T08:53:51;22.40;99.90
7588;DHT22;3835;48.850;8.938;2022-08-21T08:56:26;22.80;99.90
7588;DHT22;3835;48.850;8.938;2022-08-21T08:58:56;22.90;99.90
7588;DHT22;3835;48.850;8.938;2022-08-21T09:01:25;22.90;99.90
7588;DHT22;3835;48.850;8.938;2022-08-21T09:03:53;23.00;99.90
7588;DHT22;3835;48.850;8.938;2022-08-21T09:06:37;23.20;99.90
7588;DHT22;3835;48.850;8.938;2022-08-21T09:09:19;23.00;99.90
7588;DHT22;3835;48.850;8.938;2022-08-21T09:11:54;23.10;99.90
7588;DHT22;3835;48.850;8.938;2022-08-21T09:14:30;23.00;99.90
7588;DHT22;3835;48.850;8.938;2022-08-21T09:17:08;23.10;99.90
7588;DHT22;3835;48.850;8.938;2022-08-21T09:19:56;23.20;99.90
7588;DHT22;3835;48.850;8.938;2022-08-21T09:22:32;23.30;99.90
7588;DHT22;3835;48.850;8.938;2022-08-21T09:25:07;23.10;99.90
7588;DHT22;3835;48.850;8.938;2022-08-21T09:27:36;22.90;99.90
7588;DHT22;3835;48.850;8.938;2022-08-21T09:30:06;23.00;99.90
7588;DHT22;3835;48.850;8.938;2022-08-21T09:32:35;23.10;99.90
7588;DHT22;3835;48.850;8.938;2022-08-21T09:35:07;23.30;99.90
7588;DHT22;3835;48.850;8.938;2022-08-21T09:37:48;23.10;98.90
7588;DHT22;3835;48.850;8.938;2022-08-21T09:40:23;22.90;99.90
7588;DHT22;3835;48.850;8.938;2022-08-21T09:42:59;22.90;98.90
7588;DHT22;3835;48.850;8.938;2022-08-21T09:45:26;22.80;99.30
7588;DHT22;3835;48.850;8.938;2022-08-21T09:47:53;22.70;99.40
7588;DHT22;3835;48.850;8.938;2022-08-21T09:50:24;22.80;99.50
7588;DHT22;3835;48.850;8.938;2022-08-21T09:52:54;22.90;99.90
7588;DHT22;3835;48.850;8.938;2022-08-21T09:55:30;23.10;98.70
7588;DHT22;3835;48.850;8.938;2022-08-21T09:58:17;23.00;98.00
7588;DHT22;3835;48.850;8.938;2022-08-21T10:00:44;23.20;98.60
7588;DHT22;3835;48.850;8.938;2022-08-21T10:03:16;23.70;98.50
7588;DHT22;3835;48.850;8.938;2022-08-21T10:05:54;23.80;97.50
7588;DHT22;3835;48.850;8.938;2022-08-21T10:08:23;23.90;98.80
7588;DHT22;3835;48.850;8.938;2022-08-21T10:10:54;24.10;98.50
7588;DHT22;3835;48.850;8.938;2022-08-21T10:13:27;24.20;96.90
7588;DHT22;3835;48.850;8.938;2022-08-21T10:16:06;24.00;96.50
7588;DHT22;3835;48.850;8.938;2022-08-21T10:18:38;23.70;96.70
7588;DHT22;3835;48.850;8.938;2022-08-21T10:21:14;23.60;96.90
7588;DHT22;3835;48.850;8.938;2022-08-21T10:23:59;23.60;96.70
7588;DHT22;3835;48.850;8.938;2022-08-21T10:26:35;23.70;96.30
7588;DHT22;3835;48.850;8.938;2022-08-21T10:29:14;24.00;96.20
7588;DHT22;3835;48.850;8.938;2022-08-21T10:31:50;24.00;95.70
7588;DHT22;3835;48.850;8.938;2022-08-21T10:34:32;23.80;95.60
7588;DHT22;3835;48.850;8.938;2022-08-21T10:37:14;24.00;95.50
7588;DHT22;3835;48.850;8.938;2022-08-21T10:39:50;24.10;96.00
7588;DHT22;3835;48.850;8.938;2022-08-21T10:42:29;24.10;95.50
7588;DHT22;3835;48.850;8.938;2022-08-21T10:45:08;24.10;96.60
7588;DHT22;3835;48.850;8.938;2022-08-21T10:47:42;24.00;94.40
7588;DHT22;3835;48.850;8.938;2022-08-21T10:50:19;24.00;96.50
7588;DHT22;3835;48.850;8.938;2022-08-21T10:55:44;24.10;95.70
7588;DHT22;3835;48.850;8.938;2022-08-21T10:58:17;24.10;95.00
7588;DHT22;3835;48.850;8.938;2022-08-21T11:00:48;24.00;95.30
7588;DHT22;3835;48.850;8.938;2022-08-21T11:03:17;24.00;95.20
7588;DHT22;3835;48.850;8.938;2022-08-21T11:05:50;24.00;93.80
7588;DHT22;3835;48.850;8.938;2022-08-21T11:08:23;23.80;95.10
7588;DHT22;3835;48.850;8.938;2022-08-21T11:10:55;23.60;94.50
7588;DHT22;3835;48.850;8.938;2022-08-21T11:13:27;23.70;95.30
7588;DHT22;3835;48.850;8.938;2022-08-21T11:16:02;23.80;94.50
7588;DHT22;3835;48.850;8.938;2022-08-21T11:18:32;23.90;94.70
7588;DHT22;3835;48.850;8.938;2022-08-21T11:21:06;23.90;93.90
7588;DHT22;3835;48.850;8.938;2022-08-21T11:23:42;23.60;95.20
7588;DHT22;3835;48.850;8.938;2022-08-21T11:26:17;24.10;95.60
7588;DHT22;3835;48.850;8.938;2022-08-21T11:28:50;24.30;94.30
7588;DHT22;3835;48.850;8.938;2022-08-21T11:31:30;24.40;94.20
7588;DHT22;3835;48.850;8.938;2022-08-21T11:34:12;24.70;94.00
7588;DHT22;3835;48.850;8.938;2022-08-21T11:36:45;24.70;93.10
7588;DHT22;3835;48.850;8.938;2022-08-21T11:39:19;24.70;94.80
7588;DHT22;3835;48.850;8.938;2022-08-21T11:41:57;24.70;93.80
7588;DHT22;3835;48.850;8.938;2022-08-21T11:44:33;24.70;92.20
7588;DHT22;3835;48.850;8.938;2022-08-21T11:47:11;24.70;93.40
7588;DHT22;3835;48.850;8.938;2022-08-21T11:49:53;24.80;93.20
7588;DHT22;3835;48.850;8.938;2022-08-21T11:52:28;24.80;93.50
7588;DHT22;3835;48.850;8.938;2022-08-21T11:55:01;24.80;92.10
7588;DHT22;3835;48.850;8.938;2022-08-21T11:57:33;24.80;91.10
7588;DHT22;3835;48.850;8.938;2022-08-21T12:00:05;24.90;92.40
7588;DHT22;3835;48.850;8.938;2022-08-21T12:02:42;25.00;90.70
7588;DHT22;3835;48.850;8.938;2022-08-21T12:05:23;24.90;91.00
7588;DHT22;3835;48.850;8.938;2022-08-21T12:08:02;24.80;90.90
7588;DHT22;3835;48.850;8.938;2022-08-21T12:10:34;24.70;90.40
7588;DHT22;3835;48.850;8.938;2022-08-21T12:13:08;24.50;91.10
7588;DHT22;3835;48.850;8.938;2022-08-21T12:15:36;24.50;90.50
7588;DHT22;3835;48.850;8.938;2022-08-21T12:18:05;24.30;91.00
7588;DHT22;3835;48.850;8.938;2022-08-21T12:20:42;24.30;90.30
7588;DHT22;3835;48.850;8.938;2022-08-21T12:23:23;24.50;90.30
7588;DHT22;3835;48.850;8.938;2022-08-21T12:26:09;24.70;91.20
7588;DHT22;3835;48.850;8.938;2022-08-21T12:28:36;24.90;90.60
7588;DHT22;3835;48.850;8.938;2022-08-21T12:31:04;24.70;88.20
7588;DHT22;3835;48.850;8.938;2022-08-21T12:33:34;24.50;89.00
7588;DHT22;3835;48.850;8.938;2022-08-21T12:36:06;24.30;90.20
7588;DHT22;3835;48.850;8.938;2022-08-21T12:38:44;24.50;90.00
7588;DHT22;3835;48.850;8.938;2022-08-21T12:41:19;24.60;89.60
7588;DHT22;3835;48.850;8.938;2022-08-21T12:43:51;24.80;89.80
7588;DHT22;3835;48.850;8.938;2022-08-21T12:46:22;25.00;89.40
7588;DHT22;3835;48.850;8.938;2022-08-21T12:48:54;24.90;88.90
7588;DHT22;3835;48.850;8.938;2022-08-21T12:51:26;24.90;88.10
7588;DHT22;3835;48.850;8.938;2022-08-21T12:53:57;25.00;87.50
7588;DHT22;3835;48.850;8.938;2022-08-21T12:56:29;25.00;86.50
7588;DHT22;3835;48.850;8.938;2022-08-21T12:59:01;25.00;88.20
7588;DHT22;3835;48.850;8.938;2022-08-21T13:01:32;25.20;85.60
7588;DHT22;3835;48.850;8.938;2022-08-21T13:04:03;25.30;85.70
7588;DHT22;3835;48.850;8.938;2022-08-21T13:06:36;25.20;85.50
7588;DHT22;3835;48.850;8.938;2022-08-21T13:09:05;25.20;84.80
7588;DHT22;3835;48.850;8.938;2022-08-21T13:11:34;25.30;86.10
7588;DHT22;3835;48.850;8.938;2022-08-21T13:14:03;25.40;84.20
7588;DHT22;3835;48.850;8.938;2022-08-21T13:16:30;25.40;82.50
7588;DHT22;3835;48.850;8.938;2022-08-21T13:18:59;25.40;82.10
7588;DHT22;3835;48.850;8.938;2022-08-21T13:21:28;25.50;85.00
7588;DHT22;3835;48.850;8.938;2022-08-21T13:24:15;25.50;84.00
7588;DHT22;3835;48.850;8.938;2022-08-21T13:26:45;25.30;82.60
7588;DHT22;3835;48.850;8.938;2022-08-21T13:29:16;25.40;85.10
7588;DHT22;3835;48.850;8.938;2022-08-21T13:31:49;25.50;82.10
7588;DHT22;3835;48.850;8.938;2022-08-21T13:34:18;25.30;81.90
7588;DHT22;3835;48.850;8.938;2022-08-21T13:36:46;25.20;81.90
7588;DHT22;3835;48.850;8.938;2022-08-21T13:39:17;25.10;80.10
7588;DHT22;3835;48.850;8.938;2022-08-21T13:41:50;25.10;82.10
7588;DHT22;3835;48.850;8.938;2022-08-21T13:44:20;25.30;82.00
7588;DHT22;3835;48.850;8.938;2022-08-21T13:46:52;25.50;81.20
7588;DHT22;3835;48.850;8.938;2022-08-21T13:49:26;25.40;81.00
7588;DHT22;3835;48.850;8.938;2022-08-21T13:51:53;25.30;83.20
7588;DHT22;3835;48.850;8.938;2022-08-21T13:54:25;25.50;84.90
7588;DHT22;3835;48.850;8.938;2022-08-21T13:56:54;25.60;82.80
7588;DHT22;3835;48.850;8.938;2022-08-21T13:59:26;25.70;81.50
7588;DHT22;3835;48.850;8.938;2022-08-21T14:01:55;25.70;81.50
7588;DHT22;3835;48.850;8.938;2022-08-21T14:04:30;25.70;81.10
7588;DHT22;3835;48.850;8.938;2022-08-21T14:06:58;25.80;83.60
7588;DHT22;3835;48.850;8.938;2022-08-21T14:09:29;25.90;83.00
7588;DHT22;3835;48.850;8.938;2022-08-21T14:12:01;25.70;81.00
7588;DHT22;3835;48.850;8.938;2022-08-21T14:14:31;25.50;80.30
7588;DHT22;3835;48.850;8.938;2022-08-21T14:17:01;25.60;81.10
7588;DHT22;3835;48.850;8.938;2022-08-21T14:19:37;25.70;80.40
7588;DHT22;3835;48.850;8.938;2022-08-21T14:22:23;25.60;81.70
7588;DHT22;3835;48.850;8.938;2022-08-21T14:24:59;25.60;79.40
7588;DHT22;3835;48.850;8.938;2022-08-21T14:27:29;25.70;79.70
7588;DHT22;3835;48.850;8.938;2022-08-21T14:29:59;25.70;82.70
7588;DHT22;3835;48.850;8.938;2022-08-21T14:32:28;25.80;82.10
7588;DHT22;3835;48.850;8.938;2022-08-21T14:34:57;25.70;80.90
7588;DHT22;3835;48.850;8.938;2022-08-21T14:37:24;25.90;81.00
7588;DHT22;3835;48.850;8.938;2022-08-21T14:39:52;25.90;78.10
7588;DHT22;3835;48.850;8.938;2022-08-21T14:42:19;25.90;78.20
7588;DHT22;3835;48.850;8.938;2022-08-21T14:44:47;25.90;77.70
7588;DHT22;3835;48.850;8.938;2022-08-21T14:47:14;26.00;79.20
7588;DHT22;3835;48.850;8.938;2022-08-21T14:49:41;26.00;79.70
7588;DHT22;3835;48.850;8.938;2022-08-21T14:52:09;25.90;79.70
7588;DHT22;3835;48.850;8.938;2022-08-21T14:54:36;25.80;78.10
7588;DHT22;3835;48.850;8.938;2022-08-21T14:57:06;25.80;77.40
7588;DHT22;3835;48.850;8.938;2022-08-21T14:59:34;25.90;80.20
7588;DHT22;3835;48.850;8.938;2022-08-21T15:02:04;25.90;82.30
7588;DHT22;3835;48.850;8.938;2022-08-21T15:04:31;26.10;79.50
7588;DHT22;3835;48.850;8.938;2022-08-21T15:06:58;26.10;79.00
7588;DHT22;3835;48.850;8.938;2022-08-21T15:09:25;26.20;78.70
7588;DHT22;3835;48.850;8.938;2022-08-21T15:11:53;26.20;77.20
7588;DHT22;3835;48.850;8.938;2022-08-21T15:14:24;26.10;78.70
7588;DHT22;3835;48.850;8.938;2022-08-21T15:16:51;26.10;75.90
7588;DHT22;3835;48.850;8.938;2022-08-21T15:19:20;26.10;77.90
7588;DHT22;3835;48.850;8.938;2022-08-21T15:21:47;26.00;77.50
7588;DHT22;3835;48.850;8.938;2022-08-21T15:24:14;25.70;78.20
7588;DHT22;3835;48.850;8.938;2022-08-21T15:26:41;25.60;78.50
7588;DHT22;3835;48.850;8.938;2022-08-21T15:29:08;25.60;78.20
7588;DHT22;3835;48.850;8.938;2022-08-21T15:31:36;25.60;76.50
7588;DHT22;3835;48.850;8.938;2022-08-21T15:34:03;25.70;76.50
7588;DHT22;3835;48.850;8.938;2022-08-21T15:36:31;25.80;75.90
7588;DHT22;3835;48.850;8.938;2022-08-21T15:38:58;25.80;76.30
7588;DHT22;3835;48.850;8.938;2022-08-21T15:41:25;25.80;78.00
7588;DHT22;3835;48.850;8.938;2022-08-21T15:43:52;25.80;75.90
7588;DHT22;3835;48.850;8.938;2022-08-21T15:46:20;25.80;75.00
7588;DHT22;3835;48.850;8.938;2022-08-21T15:48:47;25.90;77.50
7588;DHT22;3835;48.850;8.938;2022-08-21T15:51:16;25.80;76.40
7588;DHT22;3835;48.850;8.938;2022-08-21T15:53:44;25.70;77.40
7588;DHT22;3835;48.850;8.938;2022-08-21T15:56:18;25.60;80.00
7588;DHT22;3835;48.850;8.938;2022-08-21T15:58:46;25.40;78.50
7588;DHT22;3835;48.850;8.938;2022-08-21T16:01:13;25.40;78.20
7588;DHT22;3835;48.850;8.938;2022-08-21T16:03:49;25.30;78.10
7588;DHT22;3835;48.850;8.938;2022-08-21T16:06:17;25.20;77.80
7588;DHT22;3835;48.850;8.938;2022-08-21T16:08:45;25.20;77.30
7588;DHT22;3835;48.850;8.938;2022-08-21T16:11:13;25.30;79.40
7588;DHT22;3835;48.850;8.938;2022-08-21T16:13:43;25.20;79.60
7588;DHT22;3835;48.850;8.938;2022-08-21T16:16:11;25.20;77.30
7588;DHT22;3835;48.850;8.938;2022-08-21T16:18:39;25.10;75.50
7588;DHT22;3835;48.850;8.938;2022-08-21T16:21:06;25.00;75.90